sensor_id;sensor_type;location;lat;lon;timestamp;pressure;altitude;pressure_sealevel;temperature
19666;BMP180;9980;51.020;7.772;2023-06-26T00:01:38;97487.00;;;22.80
19666;BMP180;9980;51.020;7.772;2023-06-26T00:04:06;97473.00;;;22.80
19666;BMP180;9980;51.020;7.772;2023-06-26T00:06:34;97483.00;;;22.70
19666;BMP180;9980;51.020;7.772;2023-06-26T00:09:01;97471.00;;;22.70
19666;BMP180;9980;51.020;7.772;2023-06-26T00:11:28;97476.00;;;22.60
19666;BMP180;9980;51.020;7.772;2023-06-26T00:13:58;97471.00;;;22.60
19666;BMP180;9980;51.020;7.772;2023-06-26T00:16:27;97479.00;;;22.60
19666;BMP180;9980;51.020;7.772;2023-06-26T00:18:54;97476.00;;;22.50
19666;BMP180;9980;51.020;7.772;2023-06-26T00:21:21;97474.00;;;22.50
19666;BMP180;9980;51.020;7.772;2023-06-26T00:23:48;97465.00;;;22.40
19666;BMP180;9980;51.020;7.772;2023-06-26T00:26:15;97482.00;;;22.40
19666;BMP180;9980;51.020;7.772;2023-06-26T00:28:42;97484.00;;;22.30
19666;BMP180;9980;51.020;7.772;2023-06-26T00:31:09;97470.00;;;22.30
19666;BMP180;9980;51.020;7.772;2023-06-26T00:33:36;97489.00;;;22.30
19666;BMP180;9980;51.020;7.772;2023-06-26T00:36:03;97475.00;;;22.20
19666;BMP180;9980;51.020;7.772;2023-06-26T00:38:30;97475.00;;;22.20
19666;BMP180;9980;51.020;7.772;2023-06-26T00:40:58;97471.00;;;22.10
19666;BMP180;9980;51.020;7.772;2023-06-26T00:43:25;97479.00;;;22.10
19666;BMP180;9980;51.020;7.772;2023-06-26T00:45:52;97468.00;;;22.10
19666;BMP180;9980;51.020;7.772;2023-06-26T00:48:19;97465.00;;;22.00
19666;BMP180;9980;51.020;7.772;2023-06-26T00:50:46;97473.00;;;22.00
19666;BMP180;9980;51.020;7.772;2023-06-26T00:53:13;97467.00;;;21.90
19666;BMP180;9980;51.020;7.772;2023-06-26T00:55:40;97468.00;;;21.90
19666;BMP180;9980;51.020;7.772;2023-06-26T00:58:08;97449.00;;;21.80
19666;BMP180;9980;51.020;7.772;2023-06-26T01:00:36;97460.00;;;21.80
19666;BMP180;9980;51.020;7.772;2023-06-26T01:03:03;97458.00;;;21.80
19666;BMP180;9980;51.020;7.772;2023-06-26T01:05:30;97454.00;;;21.70
19666;BMP180;9980;51.020;7.772;2023-06-26T01:07:59;97459.00;;;21.70
19666;BMP180;9980;51.020;7.772;2023-06-26T01:10:26;97450.00;;;21.70
19666;BMP180;9980;51.020;7.772;2023-06-26T01:12:57;97453.00;;;21.60
19666;BMP180;9980;51.020;7.772;2023-06-26T01:15:24;97440.00;;;21.60
19666;BMP180;9980;51.020;7.772;2023-06-26T01:17:52;97450.00;;;21.50
19666;BMP180;9980;51.020;7.772;2023-06-26T01:20:20;97448.00;;;21.50
19666;BMP180;9980;51.020;7.772;2023-06-26T01:23:24;97444.00;;;21.40
19666;BMP180;9980;51.020;7.772;2023-06-26T01:28:38;97438.00;;;21.40
19666;BMP180;9980;51.020;7.772;2023-06-26T01:31:07;97437.00;;;21.30
19666;BMP180;9980;51.020;7.772;2023-06-26T01:33:35;97423.00;;;21.30
19666;BMP180;9980;51.020;7.772;2023-06-26T01:36:03;97424.00;;;21.30
19666;BMP180;9980;51.020;7.772;2023-06-26T01:38:30;97432.00;;;21.20
19666;BMP180;9980;51.020;7.772;2023-06-26T01:40:58;97440.00;;;21.20
19666;BMP180;9980;51.020;7.772;2023-06-26T01:46:27;97416.00;;;21.10
19666;BMP180;9980;51.020;7.772;2023-06-26T01:49:09;97428.00;;;21.00
19666;BMP180;9980;51.020;7.772;2023-06-26T01:51:47;97420.00;;;21.00
19666;BMP180;9980;51.020;7.772;2023-06-26T01:54:18;97416.00;;;21.00
19666;BMP180;9980;51.020;7.772;2023-06-26T01:56:52;97417.00;;;20.90
19666;BMP180;9980;51.020;7.772;2023-06-26T01:59:21;97416.00;;;20.90
19666;BMP180;9980;51.020;7.772;2023-06-26T02:01:49;97415.00;;;21.10
19666;BMP180;9980;51.020;7.772;2023-06-26T02:04:16;97419.00;;;20.90
19666;BMP180;9980;51.020;7.772;2023-06-26T02:06:43;97431.00;;;20.90
19666;BMP180;9980;51.020;7.772;2023-06-26T02:09:10;97427.00;;;20.90
19666;BMP180;9980;51.020;7.772;2023-06-26T02:11:37;97419.00;;;20.80
19666;BMP180;9980;51.020;7.772;2023-06-26T02:14:04;97412.00;;;20.80
19666;BMP180;9980;51.020;7.772;2023-06-26T02:16:31;97415.00;;;20.80
19666;BMP180;9980;51.020;7.772;2023-06-26T02:18:58;97415.00;;;20.70
19666;BMP180;9980;51.020;7.772;2023-06-26T02:21:25;97416.00;;;20.70
19666;BMP180;9980;51.020;7.772;2023-06-26T02:23:55;97414.00;;;20.70
19666;BMP180;9980;51.020;7.772;2023-06-26T02:26:22;97414.00;;;20.60
19666;BMP180;9980;51.020;7.772;2023-06-26T02:28:49;97408.00;;;20.60
19666;BMP180;9980;51.020;7.772;2023-06-26T02:31:16;97397.00;;;20.60
19666;BMP180;9980;51.020;7.772;2023-06-26T02:33:43;97412.00;;;20.50
19666;BMP180;9980;51.020;7.772;2023-06-26T02:36:12;97410.00;;;20.50
19666;BMP180;9980;51.020;7.772;2023-06-26T02:38:39;97402.00;;;20.40
19666;BMP180;9980;51.020;7.772;2023-06-26T02:41:07;97403.00;;;20.40
19666;BMP180;9980;51.020;7.772;2023-06-26T02:43:35;97405.00;;;20.40
19666;BMP180;9980;51.020;7.772;2023-06-26T02:46:02;97398.00;;;20.40
19666;BMP180;9980;51.020;7.772;2023-06-26T02:48:29;97392.00;;;20.30
19666;BMP180;9980;51.020;7.772;2023-06-26T02:50:56;97407.00;;;20.30
19666;BMP180;9980;51.020;7.772;2023-06-26T02:53:27;97402.00;;;20.30
19666;BMP180;9980;51.020;7.772;2023-06-26T02:55:54;97401.00;;;20.30
19666;BMP180;9980;51.020;7.772;2023-06-26T02:58:21;97400.00;;;20.20
19666;BMP180;9980;51.020;7.772;2023-06-26T03:00:49;97398.00;;;20.20
19666;BMP180;9980;51.020;7.772;2023-06-26T03:03:17;97381.00;;;20.20
19666;BMP180;9980;51.020;7.772;2023-06-26T03:05:44;97398.00;;;20.10
19666;BMP180;9980;51.020;7.772;2023-06-26T03:08:11;97399.00;;;20.10
19666;BMP180;9980;51.020;7.772;2023-06-26T03:10:38;97403.00;;;20.10
19666;BMP180;9980;51.020;7.772;2023-06-26T03:13:05;97398.00;;;20.10
19666;BMP180;9980;51.020;7.772;2023-06-26T03:15:33;97396.00;;;20.00
19666;BMP180;9980;51.020;7.772;2023-06-26T03:18:00;97392.00;;;20.00
19666;BMP180;9980;51.020;7.772;2023-06-26T03:20:28;97387.00;;;20.00
19666;BMP180;9980;51.020;7.772;2023-06-26T03:22:57;97393.00;;;20.00
19666;BMP180;9980;51.020;7.772;2023-06-26T03:25:24;97399.00;;;19.90
19666;BMP180;9980;51.020;7.772;2023-06-26T03:28:05;97392.00;;;19.90
19666;BMP180;9980;51.020;7.772;2023-06-26T03:30:34;97392.00;;;19.90
19666;BMP180;9980;51.020;7.772;2023-06-26T03:33:01;97395.00;;;19.90
19666;BMP180;9980;51.020;7.772;2023-06-26T03:35:28;97389.00;;;19.90
19666;BMP180;9980;51.020;7.772;2023-06-26T03:37:55;97399.00;;;19.80
19666;BMP180;9980;51.020;7.772;2023-06-26T03:40:22;97408.00;;;19.80
19666;BMP180;9980;51.020;7.772;2023-06-26T03:42:50;97403.00;;;19.80
19666;BMP180;9980;51.020;7.772;2023-06-26T03:45:18;97402.00;;;19.80
19666;BMP180;9980;51.020;7.772;2023-06-26T03:47:46;97404.00;;;19.80
19666;BMP180;9980;51.020;7.772;2023-06-26T03:50:17;97410.00;;;19.80
19666;BMP180;9980;51.020;7.772;2023-06-26T03:52:45;97400.00;;;19.70
19666;BMP180;9980;51.020;7.772;2023-06-26T03:55:13;97403.00;;;19.70
19666;BMP180;9980;51.020;7.772;2023-06-26T03:57:40;97413.00;;;19.70
19666;BMP180;9980;51.020;7.772;2023-06-26T04:00:09;97420.00;;;19.70
19666;BMP180;9980;51.020;7.772;2023-06-26T04:02:40;97413.00;;;19.70
19666;BMP180;9980;51.020;7.772;2023-06-26T04:05:08;97421.00;;;19.70
19666;BMP180;9980;51.020;7.772;2023-06-26T04:07:35;97415.00;;;19.70
19666;BMP180;9980;51.020;7.772;2023-06-26T04:10:02;97421.00;;;19.70
19666;BMP180;9980;51.020;7.772;2023-06-26T04:12:29;97405.00;;;19.60
19666;BMP180;9980;51.020;7.772;2023-06-26T04:14:56;97408.00;;;19.70
19666;BMP180;9980;51.020;7.772;2023-06-26T04:17:23;97410.00;;;19.60
19666;BMP180;9980;51.020;7.772;2023-06-26T04:19:50;97410.00;;;19.60
19666;BMP180;9980;51.020;7.772;2023-06-26T04:22:17;97405.00;;;19.60
19666;BMP180;9980;51.020;7.772;2023-06-26T04:24:44;97428.00;;;19.70
19666;BMP180;9980;51.020;7.772;2023-06-26T04:27:12;97433.00;;;19.70
19666;BMP180;9980;51.020;7.772;2023-06-26T04:29:40;97427.00;;;19.70
19666;BMP180;9980;51.020;7.772;2023-06-26T04:32:07;97407.00;;;19.70
19666;BMP180;9980;51.020;7.772;2023-06-26T04:34:35;97425.00;;;19.80
19666;BMP180;9980;51.020;7.772;2023-06-26T04:37:03;97411.00;;;19.80
19666;BMP180;9980;51.020;7.772;2023-06-26T04:39:30;97415.00;;;19.80
19666;BMP180;9980;51.020;7.772;2023-06-26T04:41:58;97414.00;;;19.90
19666;BMP180;9980;51.020;7.772;2023-06-26T04:44:25;97399.00;;;20.00
19666;BMP180;9980;51.020;7.772;2023-06-26T04:46:52;97406.00;;;20.10
19666;BMP180;9980;51.020;7.772;2023-06-26T04:49:19;97417.00;;;20.20
19666;BMP180;9980;51.020;7.772;2023-06-26T04:51:47;97412.00;;;20.30
19666;BMP180;9980;51.020;7.772;2023-06-26T04:54:15;97404.00;;;20.50
19666;BMP180;9980;51.020;7.772;2023-06-26T04:56:42;97410.00;;;20.60
19666;BMP180;9980;51.020;7.772;2023-06-26T04:59:10;97403.00;;;20.80
19666;BMP180;9980;51.020;7.772;2023-06-26T05:01:40;97402.00;;;20.90
19666;BMP180;9980;51.020;7.772;2023-06-26T05:04:07;97396.00;;;21.00
19666;BMP180;9980;51.020;7.772;2023-06-26T05:06:34;97417.00;;;21.20
19666;BMP180;9980;51.020;7.772;2023-06-26T05:09:02;97411.00;;;21.30
19666;BMP180;9980;51.020;7.772;2023-06-26T05:11:29;97407.00;;;21.40
19666;BMP180;9980;51.020;7.772;2023-06-26T05:13:56;97401.00;;;21.50
19666;BMP180;9980;51.020;7.772;2023-06-26T05:16:23;97408.00;;;21.60
19666;BMP180;9980;51.020;7.772;2023-06-26T05:18:49;97403.00;;;21.70
19666;BMP180;9980;51.020;7.772;2023-06-26T05:21:17;97402.00;;;21.80
19666;BMP180;9980;51.020;7.772;2023-06-26T05:23:46;97416.00;;;22.00
19666;BMP180;9980;51.020;7.772;2023-06-26T05:26:14;97401.00;;;22.10
19666;BMP180;9980;51.020;7.772;2023-06-26T05:28:41;97415.00;;;22.30
19666;BMP180;9980;51.020;7.772;2023-06-26T05:31:08;97402.00;;;22.40
19666;BMP180;9980;51.020;7.772;2023-06-26T05:33:36;97412.00;;;22.50
19666;BMP180;9980;51.020;7.772;2023-06-26T05:36:06;97401.00;;;22.60
19666;BMP180;9980;51.020;7.772;2023-06-26T05:38:34;97414.00;;;22.80
19666;BMP180;9980;51.020;7.772;2023-06-26T05:41:02;97407.00;;;22.90
19666;BMP180;9980;51.020;7.772;2023-06-26T05:43:28;97401.00;;;23.00
19666;BMP180;9980;51.020;7.772;2023-06-26T05:45:57;97410.00;;;23.10
19666;BMP180;9980;51.020;7.772;2023-06-26T05:48:27;97407.00;;;23.20
19666;BMP180;9980;51.020;7.772;2023-06-26T05:50:54;97409.00;;;23.30
19666;BMP180;9980;51.020;7.772;2023-06-26T05:53:22;97416.00;;;23.40
19666;BMP180;9980;51.020;7.772;2023-06-26T05:55:49;97417.00;;;23.50
19666;BMP180;9980;51.020;7.772;2023-06-26T05:58:23;97415.00;;;23.50
19666;BMP180;9980;51.020;7.772;2023-06-26T06:00:50;97427.00;;;23.70
19666;BMP180;9980;51.020;7.772;2023-06-26T06:03:17;97419.00;;;23.80
19666;BMP180;9980;51.020;7.772;2023-06-26T06:05:44;97424.00;;;23.90
19666;BMP180;9980;51.020;7.772;2023-06-26T06:08:11;97415.00;;;24.00
19666;BMP180;9980;51.020;7.772;2023-06-26T06:10:38;97435.00;;;24.10
19666;BMP180;9980;51.020;7.772;2023-06-26T06:13:06;97421.00;;;24.20
19666;BMP180;9980;51.020;7.772;2023-06-26T06:15:33;97428.00;;;24.30
19666;BMP180;9980;51.020;7.772;2023-06-26T06:18:00;97426.00;;;24.30
19666;BMP180;9980;51.020;7.772;2023-06-26T06:20:27;97419.00;;;24.40
19666;BMP180;9980;51.020;7.772;2023-06-26T06:22:54;97423.00;;;24.50
19666;BMP180;9980;51.020;7.772;2023-06-26T06:25:21;97427.00;;;24.60
19666;BMP180;9980;51.020;7.772;2023-06-26T06:27:48;97421.00;;;24.70
19666;BMP180;9980;51.020;7.772;2023-06-26T06:30:15;97425.00;;;24.80
19666;BMP180;9980;51.020;7.772;2023-06-26T06:32:42;97431.00;;;24.90
19666;BMP180;9980;51.020;7.772;2023-06-26T06:35:09;97440.00;;;25.00
19666;BMP180;9980;51.020;7.772;2023-06-26T06:37:38;97444.00;;;25.10
19666;BMP180;9980;51.020;7.772;2023-06-26T06:40:06;97447.00;;;25.20
19666;BMP180;9980;51.020;7.772;2023-06-26T06:42:33;97457.00;;;25.30
19666;BMP180;9980;51.020;7.772;2023-06-26T06:45:05;97451.00;;;25.30
19666;BMP180;9980;51.020;7.772;2023-06-26T06:47:33;97468.00;;;25.50
19666;BMP180;9980;51.020;7.772;2023-06-26T06:50:01;97474.00;;;25.60
19666;BMP180;9980;51.020;7.772;2023-06-26T06:52:39;97473.00;;;25.60
19666;BMP180;9980;51.020;7.772;2023-06-26T06:55:08;97475.00;;;25.70
19666;BMP180;9980;51.020;7.772;2023-06-26T06:57:37;97471.00;;;25.80
19666;BMP180;9980;51.020;7.772;2023-06-26T07:00:07;97473.00;;;25.80
19666;BMP180;9980;51.020;7.772;2023-06-26T07:02:39;97471.00;;;25.80
19666;BMP180;9980;51.020;7.772;2023-06-26T07:05:06;97466.00;;;25.90
19666;BMP180;9980;51.020;7.772;2023-06-26T07:07:35;97473.00;;;25.90
19666;BMP180;9980;51.020;7.772;2023-06-26T07:10:12;97483.00;;;25.90
19666;BMP180;9980;51.020;7.772;2023-06-26T07:12:39;97476.00;;;26.00
19666;BMP180;9980;51.020;7.772;2023-06-26T07:15:07;97472.00;;;26.10
19666;BMP180;9980;51.020;7.772;2023-06-26T07:17:35;97492.00;;;26.20
19666;BMP180;9980;51.020;7.772;2023-06-26T07:20:03;97495.00;;;26.30
19666;BMP180;9980;51.020;7.772;2023-06-26T07:22:34;97488.00;;;26.30
19666;BMP180;9980;51.020;7.772;2023-06-26T07:25:01;97477.00;;;26.40
19666;BMP180;9980;51.020;7.772;2023-06-26T07:27:28;97492.00;;;26.50
19666;BMP180;9980;51.020;7.772;2023-06-26T07:29:55;97473.00;;;26.50
19666;BMP180;9980;51.020;7.772;2023-06-26T07:32:22;97485.00;;;26.60
19666;BMP180;9980;51.020;7.772;2023-06-26T07:34:49;97486.00;;;26.70
19666;BMP180;9980;51.020;7.772;2023-06-26T07:37:16;97477.00;;;26.70
19666;BMP180;9980;51.020;7.772;2023-06-26T07:39:43;97483.00;;;26.80
19666;BMP180;9980;51.020;7.772;2023-06-26T07:42:10;97493.00;;;26.90
19666;BMP180;9980;51.020;7.772;2023-06-26T07:44:37;97485.00;;;26.90
19666;BMP180;9980;51.020;7.772;2023-06-26T07:47:04;97478.00;;;27.00
19666;BMP180;9980;51.020;7.772;2023-06-26T07:49:31;97494.00;;;27.00
19666;BMP180;9980;51.020;7.772;2023-06-26T07:51:58;97501.00;;;27.00
19666;BMP180;9980;51.020;7.772;2023-06-26T07:54:25;97503.00;;;27.00
19666;BMP180;9980;51.020;7.772;2023-06-26T07:57:01;97521.00;;;27.00
19666;BMP180;9980;51.020;7.772;2023-06-26T07:59:29;97516.00;;;27.00
19666;BMP180;9980;51.020;7.772;2023-06-26T08:01:57;97514.00;;;27.00
19666;BMP180;9980;51.020;7.772;2023-06-26T08:04:27;97518.00;;;27.00
19666;BMP180;9980;51.020;7.772;2023-06-26T08:06:57;97529.00;;;27.00
19666;BMP180;9980;51.020;7.772;2023-06-26T08:09:27;97526.00;;;27.00
19666;BMP180;9980;51.020;7.772;2023-06-26T08:11:55;97530.00;;;27.00
19666;BMP180;9980;51.020;7.772;2023-06-26T08:14:23;97531.00;;;27.00
19666;BMP180;9980;51.020;7.772;2023-06-26T08:16:50;97529.00;;;27.00
19666;BMP180;9980;51.020;7.772;2023-06-26T08:19:17;97538.00;;;27.00
19666;BMP180;9980;51.020;7.772;2023-06-26T08:21:46;97533.00;;;27.00
19666;BMP180;9980;51.020;7.772;2023-06-26T08:24:13;97531.00;;;27.10
19666;BMP180;9980;51.020;7.772;2023-06-26T08:26:44;97514.00;;;27.10
19666;BMP180;9980;51.020;7.772;2023-06-26T08:29:11;97528.00;;;27.20
19666;BMP180;9980;51.020;7.772;2023-06-26T08:31:41;97531.00;;;27.20
19666;BMP180;9980;51.020;7.772;2023-06-26T08:34:09;97522.00;;;27.30
19666;BMP180;9980;51.020;7.772;2023-06-26T08:36:36;97528.00;;;27.40
19666;BMP180;9980;51.020;7.772;2023-06-26T08:39:03;97523.00;;;27.40
19666;BMP180;9980;51.020;7.772;2023-06-26T08:41:32;97524.00;;;27.50
19666;BMP180;9980;51.020;7.772;2023-06-26T08:43:59;97539.00;;;27.60
19666;BMP180;9980;51.020;7.772;2023-06-26T08:46:28;97540.00;;;27.70
19666;BMP180;9980;51.020;7.772;2023-06-26T08:49:01;97548.00;;;27.70
19666;BMP180;9980;51.020;7.772;2023-06-26T08:51:30;97558.00;;;27.80
19666;BMP180;9980;51.020;7.772;2023-06-26T08:54:02;97555.00;;;27.90
19666;BMP180;9980;51.020;7.772;2023-06-26T08:56:37;97570.00;;;27.90
19666;BMP180;9980;51.020;7.772;2023-06-26T08:59:07;97572.00;;;27.90
19666;BMP180;9980;51.020;7.772;2023-06-26T09:01:37;97564.00;;;28.00
19666;BMP180;9980;51.020;7.772;2023-06-26T09:04:05;97568.00;;;28.00
19666;BMP180;9980;51.020;7.772;2023-06-26T09:06:33;97571.00;;;28.10
19666;BMP180;9980;51.020;7.772;2023-06-26T09:09:01;97580.00;;;28.20
19666;BMP180;9980;51.020;7.772;2023-06-26T09:11:29;97595.00;;;28.20
19666;BMP180;9980;51.020;7.772;2023-06-26T09:13:57;97581.00;;;28.30
19666;BMP180;9980;51.020;7.772;2023-06-26T09:16:27;97564.00;;;28.30
19666;BMP180;9980;51.020;7.772;2023-06-26T09:18:56;97575.00;;;28.40
19666;BMP180;9980;51.020;7.772;2023-06-26T09:21:23;97569.00;;;28.50
19666;BMP180;9980;51.020;7.772;2023-06-26T09:23:53;97577.00;;;28.50
19666;BMP180;9980;51.020;7.772;2023-06-26T09:26:21;97578.00;;;28.60
19666;BMP180;9980;51.020;7.772;2023-06-26T09:28:49;97576.00;;;28.70
19666;BMP180;9980;51.020;7.772;2023-06-26T09:31:17;97574.00;;;28.80
19666;BMP180;9980;51.020;7.772;2023-06-26T09:34:04;97563.00;;;28.80
19666;BMP180;9980;51.020;7.772;2023-06-26T09:36:33;97567.00;;;28.90
19666;BMP180;9980;51.020;7.772;2023-06-26T09:39:08;97578.00;;;29.00
19666;BMP180;9980;51.020;7.772;2023-06-26T09:41:38;97576.00;;;29.00
19666;BMP180;9980;51.020;7.772;2023-06-26T09:44:07;97580.00;;;29.10
19666;BMP180;9980;51.020;7.772;2023-06-26T09:46:38;97588.00;;;29.10
19666;BMP180;9980;51.020;7.772;2023-06-26T09:49:10;97593.00;;;29.10
19666;BMP180;9980;51.020;7.772;2023-06-26T09:51:41;97603.00;;;29.20
19666;BMP180;9980;51.020;7.772;2023-06-26T09:54:09;97593.00;;;29.20
19666;BMP180;9980;51.020;7.772;2023-06-26T09:56:37;97594.00;;;29.20
19666;BMP180;9980;51.020;7.772;2023-06-26T09:59:05;97578.00;;;29.10
19666;BMP180;9980;51.020;7.772;2023-06-26T10:01:33;97593.00;;;29.10
19666;BMP180;9980;51.020;7.772;2023-06-26T10:04:01;97583.00;;;29.10
19666;BMP180;9980;51.020;7.772;2023-06-26T10:06:41;97564.00;;;29.00
19666;BMP180;9980;51.020;7.772;2023-06-26T10:09:09;97579.00;;;29.00
19666;BMP180;9980;51.020;7.772;2023-06-26T10:11:59;97580.00;;;29.00
19666;BMP180;9980;51.020;7.772;2023-06-26T10:14:35;97579.00;;;29.00
19666;BMP180;9980;51.020;7.772;2023-06-26T10:17:09;97587.00;;;29.00
19666;BMP180;9980;51.020;7.772;2023-06-26T10:19:40;97575.00;;;29.00
19666;BMP180;9980;51.020;7.772;2023-06-26T10:22:11;97582.00;;;29.00
19666;BMP180;9980;51.020;7.772;2023-06-26T10:24:39;97578.00;;;29.00
19666;BMP180;9980;51.020;7.772;2023-06-26T10:27:19;97595.00;;;29.00
19666;BMP180;9980;51.020;7.772;2023-06-26T10:29:56;97603.00;;;29.00
19666;BMP180;9980;51.020;7.772;2023-06-26T10:32:26;97602.00;;;29.00
19666;BMP180;9980;51.020;7.772;2023-06-26T10:34:55;97613.00;;;28.90
19666;BMP180;9980;51.020;7.772;2023-06-26T10:37:45;97615.00;;;28.80
19666;BMP180;9980;51.020;7.772;2023-06-26T10:40:17;97600.00;;;28.90
19666;BMP180;9980;51.020;7.772;2023-06-26T10:42:47;97593.00;;;28.90
19666;BMP180;9980;51.020;7.772;2023-06-26T10:45:20;97612.00;;;28.90
19666;BMP180;9980;51.020;7.772;2023-06-26T10:47:52;97601.00;;;29.00
19666;BMP180;9980;51.020;7.772;2023-06-26T10:50:26;97609.00;;;29.00
19666;BMP180;9980;51.020;7.772;2023-06-26T10:56:05;97611.00;;;29.00
19666;BMP180;9980;51.020;7.772;2023-06-26T10:58:40;97612.00;;;29.00
19666;BMP180;9980;51.020;7.772;2023-06-26T11:03:39;97607.00;;;29.10
19666;BMP180;9980;51.020;7.772;2023-06-26T11:06:15;97621.00;;;29.10
19666;BMP180;9980;51.020;7.772;2023-06-26T11:08:52;97623.00;;;29.20
19666;BMP180;9980;51.020;7.772;2023-06-26T11:14:25;97621.00;;;29.40
19666;BMP180;9980;51.020;7.772;2023-06-26T11:16:55;97626.00;;;29.50
19666;BMP180;9980;51.020;7.772;2023-06-26T11:19:26;97624.00;;;29.50
19666;BMP180;9980;51.020;7.772;2023-06-26T11:21:59;97620.00;;;29.50
19666;BMP180;9980;51.020;7.772;2023-06-26T11:24:29;97622.00;;;29.60
19666;BMP180;9980;51.020;7.772;2023-06-26T11:27:00;97644.00;;;29.60
19666;BMP180;9980;51.020;7.772;2023-06-26T11:29:30;97633.00;;;29.80
19666;BMP180;9980;51.020;7.772;2023-06-26T11:32:02;97624.00;;;29.80
19666;BMP180;9980;51.020;7.772;2023-06-26T11:34:32;97624.00;;;29.90
19666;BMP180;9980;51.020;7.772;2023-06-26T11:36:59;97614.00;;;29.90
19666;BMP180;9980;51.020;7.772;2023-06-26T11:39:28;97622.00;;;30.00
19666;BMP180;9980;51.020;7.772;2023-06-26T11:41:56;97620.00;;;30.00
19666;BMP180;9980;51.020;7.772;2023-06-26T11:44:23;97626.00;;;30.20
19666;BMP180;9980;51.020;7.772;2023-06-26T11:46:54;97620.00;;;30.20
19666;BMP180;9980;51.020;7.772;2023-06-26T11:49:23;97622.00;;;30.20
19666;BMP180;9980;51.020;7.772;2023-06-26T11:51:53;97636.00;;;30.30
19666;BMP180;9980;51.020;7.772;2023-06-26T11:54:27;97648.00;;;30.30
19666;BMP180;9980;51.020;7.772;2023-06-26T11:56:56;97640.00;;;30.40
19666;BMP180;9980;51.020;7.772;2023-06-26T11:59:33;97647.00;;;30.40
19666;BMP180;9980;51.020;7.772;2023-06-26T12:02:00;97645.00;;;30.50
19666;BMP180;9980;51.020;7.772;2023-06-26T12:04:27;97665.00;;;30.60
19666;BMP180;9980;51.020;7.772;2023-06-26T12:06:55;97658.00;;;30.60
19666;BMP180;9980;51.020;7.772;2023-06-26T12:09:26;97647.00;;;30.60
19666;BMP180;9980;51.020;7.772;2023-06-26T12:11:55;97652.00;;;30.60
19666;BMP180;9980;51.020;7.772;2023-06-26T12:14:24;97653.00;;;30.70
19666;BMP180;9980;51.020;7.772;2023-06-26T12:16:53;97644.00;;;30.80
19666;BMP180;9980;51.020;7.772;2023-06-26T12:19:25;97646.00;;;30.80
19666;BMP180;9980;51.020;7.772;2023-06-26T12:21:55;97651.00;;;30.80
19666;BMP180;9980;51.020;7.772;2023-06-26T12:24:23;97653.00;;;30.90
19666;BMP180;9980;51.020;7.772;2023-06-26T12:26:54;97650.00;;;30.90
19666;BMP180;9980;51.020;7.772;2023-06-26T12:29:32;97666.00;;;30.90
19666;BMP180;9980;51.020;7.772;2023-06-26T12:32:00;97667.00;;;30.90
19666;BMP180;9980;51.020;7.772;2023-06-26T12:34:34;97650.00;;;30.90
19666;BMP180;9980;51.020;7.772;2023-06-26T12:37:09;97654.00;;;30.90
19666;BMP180;9980;51.020;7.772;2023-06-26T12:39:57;97660.00;;;30.90
19666;BMP180;9980;51.020;7.772;2023-06-26T12:42:28;97665.00;;;31.00
19666;BMP180;9980;51.020;7.772;2023-06-26T12:44:59;97659.00;;;31.00
19666;BMP180;9980;51.020;7.772;2023-06-26T12:47:52;97662.00;;;31.00
19666;BMP180;9980;51.020;7.772;2023-06-26T12:50:19;97664.00;;;31.00
19666;BMP180;9980;51.020;7.772;2023-06-26T12:52:46;97658.00;;;31.00
19666;BMP180;9980;51.020;7.772;2023-06-26T12:55:13;97667.00;;;31.00
19666;BMP180;9980;51.020;7.772;2023-06-26T12:57:42;97671.00;;;31.00
19666;BMP180;9980;51.020;7.772;2023-06-26T13:00:09;97669.00;;;31.00
19666;BMP180;9980;51.020;7.772;2023-06-26T13:02:37;97672.00;;;31.00
19666;BMP180;9980;51.020;7.772;2023-06-26T13:05:04;97678.00;;;31.00
19666;BMP180;9980;51.020;7.772;2023-06-26T13:07:31;97681.00;;;31.10
19666;BMP180;9980;51.020;7.772;2023-06-26T13:09:58;97677.00;;;31.10
19666;BMP180;9980;51.020;7.772;2023-06-26T13:12:25;97688.00;;;31.10
19666;BMP180;9980;51.020;7.772;2023-06-26T13:14:52;97681.00;;;31.10
19666;BMP180;9980;51.020;7.772;2023-06-26T13:17:19;97698.00;;;31.10
19666;BMP180;9980;51.020;7.772;2023-06-26T13:19:46;97700.00;;;31.10
19666;BMP180;9980;51.020;7.772;2023-06-26T13:22:13;97704.00;;;31.00
19666;BMP180;9980;51.020;7.772;2023-06-26T13:24:40;97708.00;;;31.00
19666;BMP180;9980;51.020;7.772;2023-06-26T13:27:07;97698.00;;;30.90
19666;BMP180;9980;51.020;7.772;2023-06-26T13:29:34;97697.00;;;30.90
19666;BMP180;9980;51.020;7.772;2023-06-26T13:32:01;97687.00;;;30.90
19666;BMP180;9980;51.020;7.772;2023-06-26T13:34:28;97692.00;;;31.00
19666;BMP180;9980;51.020;7.772;2023-06-26T13:36:56;97689.00;;;31.00
19666;BMP180;9980;51.020;7.772;2023-06-26T13:39:23;97689.00;;;31.00
19666;BMP180;9980;51.020;7.772;2023-06-26T13:41:50;97675.00;;;31.00
19666;BMP180;9980;51.020;7.772;2023-06-26T13:44:17;97680.00;;;31.00
19666;BMP180;9980;51.020;7.772;2023-06-26T13:47:04;97696.00;;;31.00
19666;BMP180;9980;51.020;7.772;2023-06-26T13:49:33;97699.00;;;31.00
19666;BMP180;9980;51.020;7.772;2023-06-26T13:52:00;97683.00;;;31.00
19666;BMP180;9980;51.020;7.772;2023-06-26T13:54:28;97690.00;;;31.10
19666;BMP180;9980;51.020;7.772;2023-06-26T13:56:55;97689.00;;;31.00
19666;BMP180;9980;51.020;7.772;2023-06-26T13:59:24;97695.00;;;31.10
19666;BMP180;9980;51.020;7.772;2023-06-26T14:01:52;97689.00;;;31.10
19666;BMP180;9980;51.020;7.772;2023-06-26T14:04:19;97693.00;;;31.10
19666;BMP180;9980;51.020;7.772;2023-06-26T14:06:46;97699.00;;;31.20
19666;BMP180;9980;51.020;7.772;2023-06-26T14:09:13;97693.00;;;31.20
19666;BMP180;9980;51.020;7.772;2023-06-26T14:11:40;97694.00;;;31.20
19666;BMP180;9980;51.020;7.772;2023-06-26T14:14:07;97705.00;;;31.20
19666;BMP180;9980;51.020;7.772;2023-06-26T14:16:34;97712.00;;;31.20
19666;BMP180;9980;51.020;7.772;2023-06-26T14:19:01;97700.00;;;31.10
19666;BMP180;9980;51.020;7.772;2023-06-26T14:21:28;97708.00;;;31.10
19666;BMP180;9980;51.020;7.772;2023-06-26T14:23:55;97707.00;;;31.10
19666;BMP180;9980;51.020;7.772;2023-06-26T14:26:22;97717.00;;;31.10
19666;BMP180;9980;51.020;7.772;2023-06-26T14:28:49;97728.00;;;31.10
19666;BMP180;9980;51.020;7.772;2023-06-26T14:31:16;97715.00;;;31.00
19666;BMP180;9980;51.020;7.772;2023-06-26T14:33:43;97709.00;;;31.00
19666;BMP180;9980;51.020;7.772;2023-06-26T14:36:10;97712.00;;;30.90
19666;BMP180;9980;51.020;7.772;2023-06-26T14:38:37;97708.00;;;30.80
19666;BMP180;9980;51.020;7.772;2023-06-26T14:41:05;97710.00;;;30.70
19666;BMP180;9980;51.020;7.772;2023-06-26T14:43:32;97710.00;;;30.60
19666;BMP180;9980;51.020;7.772;2023-06-26T14:46:00;97705.00;;;30.60